Time;durP1;ratioP1;P1;durP2;ratioP2;P2;SDS_P1;SDS_P2;PMS_P1;PMS_P2;Temp;Humidity;BMP_temperature;BMP_pressure;BME280_temperature;BME280_humidity;BME280_pressure;Samples;Min_cycle;Max_cycle;Signal;HPM_P1;HPM_P2
2023/09/14 07:30:23;;;;;;;23.17;10.82;;;;;;;16.60;86.83;97130.34;2086635;27;20571;-58
2023/09/14 07:38:19;;;;;;;16.23;10.07;;;;;;;16.45;87.08;97121.59;2101747;27;20557;-58
2023/09/14 07:39:21;;;;;;;18.67;10.98;;;;;;;16.57;86.28;97124.41;2099235;28;20651;-58
2023/09/14 07:40:22;;;;;;;15.13;10.25;;;;;;;16.72;85.70;97114.72;2083232;27;20216;-58
2023/09/14 07:41:26;;;;;;;18.23;9.50;;;;;;;17.09;84.82;97129.13;2079167;28;20796;-58
2023/09/14 07:42:27;;;;;;;18.02;10.20;;;;;;;17.28;83.42;97125.31;2082330;28;20196;-59
2023/09/14 07:43:29;;;;;;;16.98;10.77;;;;;;;17.34;82.88;97124.91;2079920;28;20201;-58
2023/09/14 07:44:30;;;;;;;17.63;10.25;;;;;;;17.33;83.10;97131.16;2096498;28;20276;-58
2023/09/14 07:45:35;;;;;;;17.08;9.27;;;;;;;17.49;82.54;97130.16;2104930;28;20199;-58
2023/09/14 07:46:37;;;;;;;15.52;10.38;;;;;;;17.82;82.20;97132.38;2090622;28;20670;-59
2023/09/14 07:47:39;;;;;;;16.85;10.43;;;;;;;17.93;81.38;97134.31;2088806;28;20197;-60
2023/09/14 07:48:42;;;;;;;16.50;9.30;;;;;;;18.06;80.27;97135.19;2090093;28;20283;-60
2023/09/14 07:49:45;;;;;;;14.95;9.02;;;;;;;18.15;79.75;97138.19;2091061;28;20197;-59
2023/09/14 07:50:47;;;;;;;16.48;8.80;;;;;;;18.32;79.67;97137.88;2087287;28;20189;-59
2023/09/14 07:51:48;;;;;;;14.70;8.73;;;;;;;18.54;78.99;97139.88;2087402;28;20208;-59
2023/09/14 07:52:50;;;;;;;15.20;8.70;;;;;;;19.09;77.93;97134.34;2090127;28;20561;-59
2023/09/14 07:53:53;;;;;;;13.70;8.20;;;;;;;19.42;76.43;97132.88;2088974;28;20226;-59
2023/09/14 07:54:54;;;;;;;13.70;7.40;;;;;;;19.95;74.65;97143.13;2090713;28;20913;-59
2023/09/14 07:55:56;;;;;;;12.27;8.07;;;;;;;20.62;72.59;97143.38;2089816;28;20203;-59
2023/09/14 07:56:57;;;;;;;12.65;8.35;;;;;;;21.24;71.21;97136.75;2091160;28;20636;-59
2023/09/14 07:57:59;;;;;;;11.80;8.02;;;;;;;21.75;68.09;97139.81;2090824;28;20244;-59
2023/09/14 07:59:00;;;;;;;14.07;8.13;;;;;;;22.23;66.56;97144.66;2089814;28;20287;-59
2023/09/14 08:00:02;;;;;;;12.07;7.80;;;;;;;22.59;64.36;97139.03;2086500;28;20232;-59
2023/09/14 08:01:03;;;;;;;10.95;6.88;;;;;;;21.71;66.42;97143.69;2088129;28;20232;-59
2023/09/14 08:02:07;;;;;;;12.82;7.53;;;;;;;22.07;66.46;97138.94;2090561;28;20207;-59
2023/09/14 08:03:09;;;;;;;10.90;7.28;;;;;;;22.53;65.52;97142.22;2089628;28;20226;-60
2023/09/14 08:04:11;;;;;;;8.88;6.50;;;;;;;22.73;64.65;97137.84;2091925;28;20196;-60
2023/09/14 08:05:13;;;;;;;9.15;6.40;;;;;;;23.36;63.07;97131.50;2089924;28;20216;-60
2023/09/14 08:06:18;;;;;;;9.55;5.90;;;;;;;21.96;66.55;97131.88;2093547;28;20199;-60
2023/09/14 08:07:22;;;;;;;15.85;7.95;;;;;;;22.15;65.79;97134.66;2090119;28;20225;-60
2023/09/14 08:08:23;;;;;;;13.27;7.60;;;;;;;21.77;66.26;97144.03;2091429;28;20279;-60
2023/09/14 08:09:25;;;;;;;9.75;7.30;;;;;;;20.63;70.06;97140.66;2090023;28;20200;-60
2023/09/14 08:10:26;;;;;;;10.63;6.97;;;;;;;21.61;68.62;97143.59;2088287;28;20227;-60
2023/09/14 08:11:28;;;;;;;9.88;7.32;;;;;;;22.58;64.93;97142.69;2090852;28;20244;-60
2023/09/14 08:12:29;;;;;;;8.85;6.63;;;;;;;22.15;65.42;97141.81;2090626;28;20283;-60
2023/09/14 08:13:31;;;;;;;18.10;7.50;;;;;;;21.02;68.50;97141.13;2086908;28;20200;-60
2023/09/14 08:14:33;;;;;;;8.77;5.88;;;;;;;22.04;67.77;97140.03;2091203;28;20192;-60
2023/09/14 08:15:35;;;;;;;13.60;7.68;;;;;;;23.42;62.61;97142.44;2092061;28;20567;-60
2023/09/14 08:16:36;;;;;;;11.93;6.68;;;;;;;23.58;62.70;97143.72;2089453;28;20291;-60
2023/09/14 08:17:38;;;;;;;10.43;6.95;;;;;;;23.48;62.41;97139.25;2089300;28;20211;-59
2023/09/14 08:18:39;;;;;;;10.93;7.35;;;;;;;21.57;66.25;97147.47;2090472;28;20196;-60
2023/09/14 08:19:41;;;;;;;11.30;7.43;;;;;;;21.76;67.27;97149.47;2091532;28;20190;-60
2023/09/14 08:20:42;;;;;;;10.70;7.00;;;;;;;20.97;69.36;97148.63;2091862;28;20195;-60
2023/09/14 08:21:44;;;;;;;16.60;7.93;;;;;;;20.90;68.87;97149.22;2086798;28;20196;-60
2023/09/14 08:22:46;;;;;;;14.25;8.70;;;;;;;18.56;75.45;97151.22;2089280;28;20587;-60
2023/09/14 08:23:47;;;;;;;12.60;7.45;;;;;;;18.67;76.44;97144.34;2090043;28;20550;-60
2023/09/14 08:24:49;;;;;;;13.18;8.70;;;;;;;19.50;74.50;97142.88;2085810;28;20255;-60
2023/09/14 08:25:52;;;;;;;14.85;8.10;;;;;;;20.18;72.91;97141.38;2087118;28;20193;-59
2023/09/14 08:26:53;;;;;;;12.20;7.95;;;;;;;21.26;69.20;97145.47;2089425;28;20283;-60
2023/09/14 08:27:56;;;;;;;12.93;8.07;;;;;;;21.82;67.15;97147.16;2089856;28;20192;-60
2023/09/14 08:28:57;;;;;;;12.23;7.82;;;;;;;22.47;65.83;97149.78;2090855;28;20203;-60
2023/09/14 08:29:59;;;;;;;17.20;8.15;;;;;;;21.98;66.22;97148.56;2090090;28;20227;-60
2023/09/14 08:31:00;;;;;;;11.25;7.47;;;;;;;22.54;64.62;97150.06;2089460;28;20231;-60
2023/09/14 08:32:02;;;;;;;12.00;6.75;;;;;;;22.43;65.76;97150.97;2090486;28;20196;-60
2023/09/14 08:33:05;;;;;;;13.85;7.78;;;;;;;21.74;65.89;97146.94;2091763;28;20283;-60
2023/09/14 08:34:06;;;;;;;16.15;5.97;;;;;;;22.24;66.06;97149.00;2089984;28;20219;-60
2023/09/14 08:35:25;;;;;;;9.82;5.65;;;;;;;23.10;64.21;97155.94;2089868;28;20579;-60
2023/09/14 08:36:28;;;;;;;10.82;7.38;;;;;;;22.17;64.69;97147.84;2090050;28;20275;-60
2023/09/14 08:37:29;;;;;;;16.50;9.00;;;;;;;21.71;66.38;97149.84;2105823;28;20195;-59
2023/09/14 08:38:31;;;;;;;14.00;7.50;;;;;;;21.45;67.27;97151.97;2105948;28;20275;-60
2023/09/14 08:39:32;;;;;;;13.20;7.78;;;;;;;21.95;65.33;97160.28;2086279;28;20651;-60
2023/09/14 08:40:34;;;;;;;11.77;6.97;;;;;;;21.43;67.85;97159.19;2088189;28;20713;-60
2023/09/14 08:41:38;;;;;;;11.75;6.40;;;;;;;21.16;68.30;97157.78;2091952;28;20799;-59
2023/09/14 08:42:49;;;;;;;17.40;7.55;;;;;;;20.37;70.03;97151.44;2092709;28;20791;-60
2023/09/14 08:43:51;;;;;;;10.35;6.72;;;;;;;19.72;72.25;97156.25;2090002;28;20196;-60
2023/09/14 08:44:54;;;;;;;14.50;7.43;;;;;;;19.62;73.43;97157.03;2088657;28;20285;-59
2023/09/14 08:45:58;;;;;;;10.30;6.60;;;;;;;20.45;71.01;97155.31;2090227;28;20204;-60
2023/09/14 08:47:01;;;;;;;11.10;7.47;;;;;;;21.14;69.87;97162.38;2090929;28;20299;-60
2023/09/14 08:48:04;;;;;;;11.65;7.63;;;;;;;20.90;70.26;97157.19;2090583;28;20612;-60
2023/09/14 08:49:07;;;;;;;13.02;7.78;;;;;;;21.02;68.54;97159.72;2087125;28;20197;-59
2023/09/14 08:50:13;;;;;;;10.65;6.93;;;;;;;21.72;67.62;97156.00;2084242;28;20216;-60
2023/09/14 08:51:16;;;;;;;10.18;6.53;;;;;;;20.34;70.84;97156.13;2085006;28;20292;-60
2023/09/14 08:52:18;;;;;;;17.83;8.20;;;;;;;21.18;69.50;97158.53;2085431;28;20284;-59
2023/09/14 08:53:22;;;;;;;17.42;7.53;;;;;;;20.95;68.68;97152.34;2081505;28;20246;-60
2023/09/14 08:54:23;;;;;;;12.15;6.50;;;;;;;20.70;69.41;97155.13;2082113;28;20235;-60
2023/09/14 08:55:35;;;;;;;11.48;7.10;;;;;;;20.26;71.71;97155.88;2083935;28;20266;-59
2023/09/14 08:56:37;;;;;;;12.98;6.70;;;;;;;20.51;70.79;97163.63;2085342;28;20291;-60
2023/09/14 08:57:41;;;;;;;14.88;7.05;;;;;;;20.74;69.84;97153.09;2086494;28;20205;-59
2023/09/14 08:58:44;;;;;;;13.10;6.53;;;;;;;20.92;69.30;97152.63;2084153;28;20259;-59
2023/09/14 08:59:46;;;;;;;13.40;6.55;;;;;;;21.13;69.57;97158.03;2082628;28;20201;-60
2023/09/14 09:00:48;;;;;;;13.52;8.10;;;;;;;21.25;69.83;97154.38;2081049;28;20594;-60
2023/09/14 09:01:50;;;;;;;9.88;5.95;;;;;;;22.25;67.73;97153.34;2085396;28;20227;-59
2023/09/14 09:02:53;;;;;;;10.20;7.80;;;;;;;21.08;68.43;97146.91;2085148;28;20193;-60
2023/09/14 09:03:55;;;;;;;12.30;7.00;;;;;;;20.97;70.56;97147.78;2083405;28;20227;-59
2023/09/14 09:04:56;;;;;;;11.15;6.63;;;;;;;21.33;68.39;97157.28;2085694;28;20236;-59
2023/09/14 09:05:58;;;;;;;12.20;7.28;;;;;;;21.25;69.11;97153.56;2084896;28;20208;-59
2023/09/14 09:07:01;;;;;;;10.63;6.45;;;;;;;20.78;70.43;97151.88;2081202;28;20205;-59
2023/09/14 09:08:03;;;;;;;10.48;5.78;;;;;;;20.46;71.59;97149.88;2083087;28;20227;-59
2023/09/14 09:09:06;;;;;;;10.85;6.18;;;;;;;20.72;71.51;97144.41;2084801;28;20193;-59
2023/09/14 09:10:23;;;;;;;9.00;4.80;;;;;;;21.28;70.05;97162.13;2084532;28;20253;-59
2023/09/14 09:11:27;;;;;;;9.00;4.97;;;;;;;21.42;70.26;97149.53;2084031;28;20200;-59
2023/09/14 09:12:29;;;;;;;11.45;5.00;;;;;;;21.81;69.49;97152.59;2083225;28;20235;-59
2023/09/14 09:13:35;;;;;;;7.07;4.40;;;;;;;22.14;67.61;97148.09;2084235;28;20197;-59
2023/09/14 09:14:37;;;;;;;8.88;5.18;;;;;;;22.32;67.08;97146.56;2083001;28;20588;-59
2023/09/14 09:15:39;;;;;;;8.63;4.30;;;;;;;22.57;66.49;97149.81;2085091;28;20207;-59
2023/09/14 09:16:40;;;;;;;8.77;4.38;;;;;;;22.86;66.17;97146.44;2085120;28;20257;-60
2023/09/14 09:17:44;;;;;;;8.18;4.45;;;;;;;23.87;63.12;97146.44;2084096;28;20656;-60
2023/09/14 09:19:04;;;;;;;9.75;5.07;;;;;;;24.38;61.31;97149.81;2085530;28;20263;-59
2023/09/14 09:20:22;;;;;;;12.63;5.00;;;;;;;23.47;62.33;97144.72;2084893;28;20224;-60
2023/09/14 09:21:26;;;;;;;8.60;5.15;;;;;;;21.93;65.54;97151.59;2084983;28;20863;-59
2023/09/14 09:22:28;;;;;;;8.30;5.22;;;;;;;21.91;67.04;97150.84;2083339;28;20189;-60
2023/09/14 09:23:31;;;;;;;9.35;5.22;;;;;;;21.99;66.39;97145.75;2085678;28;20250;-59
2023/09/14 09:24:34;;;;;;;8.98;5.50;;;;;;;22.92;64.64;97151.25;2080558;28;20197;-60
2023/09/14 09:25:44;;;;;;;11.35;4.70;;;;;;;24.31;61.57;97138.00;2081828;28;20229;-59
2023/09/14 09:26:46;;;;;;;9.70;4.65;;;;;;;24.81;59.67;97138.75;2085345;28;20207;-60
2023/09/14 09:27:57;;;;;;;8.88;4.85;;;;;;;24.96;60.24;97139.13;2084411;28;20714;-60
2023/09/14 09:28:58;;;;;;;10.32;5.10;;;;;;;24.68;58.89;97144.44;2083195;28;20197;-60
2023/09/14 09:30:00;;;;;;;9.30;5.28;;;;;;;23.23;61.41;97147.75;2084379;28;20224;-60
2023/09/14 09:31:02;;;;;;;9.48;5.25;;;;;;;21.91;65.18;97142.88;2086373;28;20205;-61
2023/09/14 09:32:04;;;;;;;10.35;6.57;;;;;;;21.35;67.69;97144.72;2084817;28;20230;-60
2023/09/14 09:33:07;;;;;;;9.93;5.32;;;;;;;21.33;67.79;97149.31;2085727;28;20245;-60
2023/09/14 09:34:12;;;;;;;10.43;5.22;;;;;;;20.96;68.37;97143.44;2083447;28;20700;-60
2023/09/14 09:35:22;;;;;;;7.43;5.18;;;;;;;22.16;66.68;97149.66;2084817;28;20243;-60
2023/09/14 09:36:23;;;;;;;9.32;5.50;;;;;;;22.01;65.35;97143.78;2084528;28;20811;-60
2023/09/14 09:37:25;;;;;;;9.88;5.53;;;;;;;21.04;67.55;97149.84;2084863;28;20193;-60
2023/09/14 09:38:28;;;;;;;10.45;5.45;;;;;;;21.86;65.31;97145.06;2081008;28;20533;-60
2023/09/14 09:39:34;;;;;;;9.18;4.10;;;;;;;22.22;65.07;97143.00;2080969;28;20197;-60
2023/09/14 09:40:41;;;;;;;8.80;5.28;;;;;;;22.00;65.03;97142.13;2085470;28;20203;-60
2023/09/14 09:41:45;;;;;;;16.95;5.05;;;;;;;21.78;65.49;97150.19;2085094;28;20201;-60
2023/09/14 09:42:48;;;;;;;9.05;5.05;;;;;;;21.80;65.91;97149.09;2080851;28;20196;-60
2023/09/14 09:43:49;;;;;;;11.45;5.20;;;;;;;23.04;64.01;97143.16;2083226;28;20228;-60
2023/09/14 09:44:58;;;;;;;10.93;3.72;;;;;;;24.83;59.76;97147.47;2082594;28;20228;-60
2023/09/14 09:45:59;;;;;;;18.30;4.78;;;;;;;25.43;57.22;97155.09;2083249;28;20197;-60
2023/09/14 09:47:01;;;;;;;9.32;4.38;;;;;;;26.22;55.87;97147.34;2080879;28;20659;-61
2023/09/14 09:48:03;;;;;;;8.43;4.35;;;;;;;24.88;58.81;97155.88;2081309;28;20197;-60
2023/09/14 09:49:19;;;;;;;9.30;4.18;;;;;;;25.25;58.18;97153.22;2082508;28;20197;-60
2023/09/14 09:50:22;;;;;;;14.50;4.50;;;;;;;25.67;56.18;97151.00;2083236;28;20224;-61
2023/09/14 09:51:24;;;;;;;6.38;4.45;;;;;;;26.08;55.83;97140.75;2083508;28;20193;-61
2023/09/14 09:52:26;;;;;;;8.85;4.03;;;;;;;26.72;54.14;97146.69;2084904;28;20873;-60
2023/09/14 09:53:28;;;;;;;8.50;4.63;;;;;;;27.14;53.44;97147.78;2085135;28;20193;-60
2023/09/14 09:54:30;;;;;;;6.53;3.75;;;;;;;27.72;52.92;97139.97;2084346;28;20247;-61
2023/09/14 09:55:32;;;;;;;6.82;3.83;;;;;;;26.93;53.80;97142.84;2083365;28;20923;-60
2023/09/14 09:56:35;;;;;;;9.23;4.18;;;;;;;25.00;56.18;97144.03;2086230;28;20200;-61
2023/09/14 09:57:49;;;;;;;7.55;4.15;;;;;;;23.51;59.94;97148.78;2084065;28;20283;-61
2023/09/14 09:58:50;;;;;;;6.85;3.78;;;;;;;25.41;57.19;97141.06;2084284;28;20247;-61
2023/09/14 09:59:52;;;;;;;7.75;3.38;;;;;;;27.11;54.38;97141.91;2084577;28;20250;-61
2023/09/14 10:00:57;;;;;;;6.00;3.42;;;;;;;28.36;51.80;97144.72;2084139;28;20205;-62
2023/09/14 10:01:58;;;;;;;13.15;3.67;;;;;;;29.28;50.18;97143.53;2080515;28;20205;-63
2023/09/14 10:03:01;;;;;;;5.35;3.03;;;;;;;29.61;49.15;97149.59;2081541;28;20204;-63
2023/09/14 10:04:10;;;;;;;10.32;4.05;;;;;;;30.56;47.68;97146.75;2083609;28;20231;-63
2023/09/14 10:05:11;;;;;;;7.15;3.78;;;;;;;29.83;47.03;97135.47;2082596;28;20319;-63
2023/09/14 10:06:13;;;;;;;11.27;3.58;;;;;;;29.92;46.95;97140.66;2082092;28;20228;-63
2023/09/14 10:07:22;;;;;;;4.53;3.33;;;;;;;29.35;49.02;97139.13;2085156;28;20208;-63
2023/09/14 10:08:23;;;;;;;8.40;2.80;;;;;;;30.06;47.69;97138.22;2086026;28;20197;-63
2023/09/14 10:09:32;;;;;;;5.70;3.20;;;;;;;30.43;46.90;97140.09;2080759;28;20204;-63
2023/09/14 10:10:33;;;;;;;5.85;3.45;;;;;;;30.82;45.93;97143.63;2085487;28;20220;-62
2023/09/14 10:11:36;;;;;;;6.85;2.35;;;;;;;31.28;44.79;97137.22;2084841;28;20209;-63
2023/09/14 10:12:38;;;;;;;10.13;3.43;;;;;;;31.22;44.77;97143.34;2084677;28;20205;-63
2023/09/14 10:13:40;;;;;;;6.33;3.50;;;;;;;28.81;47.73;97143.34;2086565;28;20511;-63
2023/09/14 10:14:43;;;;;;;6.23;4.20;;;;;;;26.68;52.32;97142.66;2083210;28;20460;-63
2023/09/14 10:15:51;;;;;;;5.50;3.43;;;;;;;26.25;53.49;97136.34;2084272;28;20444;-62
2023/09/14 10:16:54;;;;;;;6.80;2.78;;;;;;;27.58;51.09;97135.22;2080486;28;20439;-62
2023/09/14 10:17:57;;;;;;;6.87;3.40;;;;;;;27.31;51.67;97139.81;2081129;28;20231;-62
2023/09/14 10:19:01;;;;;;;5.70;2.75;;;;;;;27.16;52.49;97127.03;2080501;28;20434;-62
2023/09/14 10:20:08;;;;;;;5.75;2.78;;;;;;;25.83;55.02;97134.28;2083811;28;20822;-62
2023/09/14 10:21:10;;;;;;;5.97;2.60;;;;;;;25.88;54.31;97134.69;2080530;28;20270;-63
2023/09/14 10:22:12;;;;;;;7.43;2.78;;;;;;;23.78;58.39;97128.59;2080944;28;20727;-62
2023/09/14 10:23:16;;;;;;;5.10;3.03;;;;;;;23.54;58.58;97132.53;2083934;28;20296;-63
2023/09/14 10:24:19;;;;;;;7.93;2.60;;;;;;;23.41;59.81;97135.44;2082438;28;20456;-62
2023/09/14 10:25:21;;;;;;;6.47;2.80;;;;;;;24.25;58.71;97134.09;2081640;28;20225;-63
2023/09/14 10:26:22;;;;;;;7.50;3.13;;;;;;;24.31;57.83;97135.34;2083920;28;20192;-62
2023/09/14 10:27:29;;;;;;;7.25;3.05;;;;;;;24.55;58.41;97140.22;2084347;28;20836;-62
2023/09/14 10:28:32;;;;;;;5.78;2.78;;;;;;;25.76;56.49;97136.72;2084088;28;20192;-62
2023/09/14 10:29:37;;;;;;;9.10;3.13;;;;;;;27.16;53.48;97139.56;2084139;28;20192;-62
2023/09/14 10:30:39;;;;;;;5.70;2.78;;;;;;;27.94;51.50;97129.59;2084886;28;20251;-63
2023/09/14 10:31:43;;;;;;;5.85;2.95;;;;;;;27.81;51.91;97127.41;2086856;28;20729;-62
2023/09/14 10:32:48;;;;;;;9.60;2.88;;;;;;;28.25;51.20;97128.94;2087634;28;20200;-62
2023/09/14 10:33:50;;;;;;;6.07;2.75;;;;;;;28.61;50.25;97129.41;2087977;28;20250;-62
2023/09/14 10:34:52;;;;;;;9.18;2.75;;;;;;;28.14;50.58;97128.28;2083242;28;20220;-63
2023/09/14 10:36:08;;;;;;;7.45;2.63;;;;;;;26.79;53.60;97122.00;2083732;28;20195;-63
2023/09/14 10:37:10;;;;;;;5.00;2.78;;;;;;;26.01;55.26;97127.09;2083777;28;20192;-62
2023/09/14 10:38:12;;;;;;;7.03;2.60;;;;;;;27.10;53.13;97130.34;2083488;28;20774;-63
2023/09/14 10:39:18;;;;;;;11.68;3.47;;;;;;;25.75;54.12;97130.53;2083947;28;20192;-63
2023/09/14 10:40:20;;;;;;;8.68;2.90;;;;;;;25.96;54.46;97123.22;2084032;28;20225;-62
2023/09/14 10:41:22;;;;;;;6.95;3.10;;;;;;;26.10;54.09;97127.19;2082979;28;20193;-62
2023/09/14 10:42:23;;;;;;;5.50;2.97;;;;;;;25.82;54.44;97127.25;2085441;28;20212;-63
2023/09/14 10:43:25;;;;;;;7.97;3.35;;;;;;;25.10;57.07;97122.59;2083446;28;20207;-62
2023/09/14 10:44:28;;;;;;;7.05;3.40;;;;;;;24.77;57.48;97124.84;2080277;28;20259;-63
2023/09/14 10:46:02;;;;;;;7.20;3.38;;;;;;;24.79;57.99;97117.56;2082440;28;20228;-62
2023/09/14 10:47:05;;;;;;;6.22;3.42;;;;;;;25.34;56.88;97111.34;2083269;28;20342;-61
2023/09/14 10:48:14;;;;;;;6.20;3.67;;;;;;;25.94;54.44;97122.50;2081953;28;20196;-61
2023/09/14 10:49:35;;;;;;;5.05;3.42;;;;;;;27.73;52.13;97122.88;2082407;28;20193;-61
2023/09/14 10:50:38;;;;;;;8.93;2.83;;;;;;;29.04;49.90;97120.25;2083502;28;20832;-61
2023/09/14 10:51:41;;;;;;;6.18;3.15;;;;;;;28.70;50.64;97119.53;2084338;28;20207;-62
2023/09/14 10:52:42;;;;;;;5.80;2.92;;;;;;;28.87;49.11;97117.63;2082360;28;20554;-61
2023/09/14 10:53:45;;;;;;;4.18;2.15;;;;;;;29.76;47.58;97117.38;2081474;28;20197;-61
2023/09/14 10:54:47;;;;;;;5.47;3.10;;;;;;;29.92;46.60;97118.31;2081680;28;20220;-61
2023/09/14 10:55:48;;;;;;;7.80;2.97;;;;;;;29.98;47.01;97114.91;2085169;28;20212;-61
2023/09/14 10:56:59;;;;;;;3.97;2.53;;;;;;;28.22;48.94;97107.81;2084777;28;20541;-61
2023/09/14 10:58:02;;;;;;;4.63;2.70;;;;;;;26.87;51.32;97114.84;2083418;28;20433;-61
2023/09/14 10:59:08;;;;;;;8.43;3.25;;;;;;;25.60;54.66;97116.03;2083902;28;20284;-61
2023/09/14 11:00:34;;;;;;;6.07;2.30;;;;;;;27.62;52.32;97105.25;2081448;28;20232;-61
2023/09/14 11:01:50;;;;;;;4.72;2.70;;;;;;;29.22;48.73;97111.97;2083702;28;20887;-61
2023/09/14 11:02:56;;;;;;;9.07;3.00;;;;;;;29.75;47.66;97113.03;2084111;28;20257;-62
2023/09/14 11:04:18;;;;;;;4.97;2.90;;;;;;;30.24;46.89;97108.28;2083960;28;20308;-63
2023/09/14 11:05:26;;;;;;;5.50;3.30;;;;;;;30.45;46.23;97104.91;2082932;28;20608;-62
2023/09/14 11:06:47;;;;;;;6.10;2.60;;;;;;;30.49;46.69;97108.06;2082483;28;20433;-62
2023/09/14 11:07:59;;;;;;;12.07;2.97;;;;;;;31.19;45.86;97111.38;2083519;28;20437;-62
2023/09/14 11:09:05;;;;;;;8.40;2.50;;;;;;;31.15;45.11;97108.22;2084150;28;20469;-62
2023/09/14 11:10:09;;;;;;;4.83;2.93;;;;;;;31.54;44.81;97112.41;2082673;28;20442;-62
2023/09/14 11:11:11;;;;;;;4.60;2.50;;;;;;;32.16;44.20;97106.59;2083282;28;20469;-62
2023/09/14 11:12:20;;;;;;;4.10;2.50;;;;;;;31.89;43.49;97104.50;2082823;28;20454;-62
2023/09/14 11:13:25;;;;;;;3.83;2.50;;;;;;;31.38;43.38;97102.69;2083923;28;20429;-63
2023/09/14 11:14:28;;;;;;;5.60;2.80;;;;;;;30.48;46.16;97106.44;2083186;28;20431;-62
2023/09/14 11:15:33;;;;;;;7.93;2.53;;;;;;;30.71;45.38;97106.34;2083568;28;20481;-63
2023/09/14 11:16:49;;;;;;;5.87;2.70;;;;;;;30.29;44.98;97104.00;2080203;28;20434;-63
2023/09/14 11:17:53;;;;;;;4.60;2.13;;;;;;;29.68;46.45;97106.66;2083654;28;20443;-62
2023/09/14 11:18:56;;;;;;;8.70;2.70;;;;;;;27.34;49.41;97096.59;2084800;28;20472;-62
2023/09/14 11:20:00;;;;;;;5.07;2.50;;;;;;;27.34;50.78;97102.78;2084526;28;20519;-62
2023/09/14 11:21:04;;;;;;;6.13;2.20;;;;;;;27.91;50.45;97106.63;2080152;28;20472;-62
2023/09/14 11:22:14;;;;;;;5.90;2.93;;;;;;;28.22;50.12;97103.28;2081262;28;20425;-62
2023/09/14 11:23:16;;;;;;;7.83;2.70;;;;;;;28.24;50.73;97103.97;2085133;28;20908;-63
2023/09/14 11:24:32;;;;;;;7.50;3.03;;;;;;;26.18;53.46;97109.38;2083573;28;20419;-62
2023/09/14 11:25:41;;;;;;;8.50;2.60;;;;;;;26.80;53.22;97100.41;2084505;28;20441;-62
2023/09/14 11:27:03;;;;;;;6.67;3.13;;;;;;;26.53;53.82;97101.41;2084383;28;21000;-62
2023/09/14 11:28:18;;;;;;;8.77;3.23;;;;;;;26.33;54.47;97092.75;2083987;28;20456;-62
2023/09/14 11:29:24;;;;;;;6.80;3.30;;;;;;;26.56;54.18;97104.63;2083065;28;21069;-62
2023/09/14 11:30:30;;;;;;;4.90;2.70;;;;;;;26.21;54.32;97092.16;2079603;28;20465;-62
2023/09/14 11:31:34;;;;;;;11.48;3.03;;;;;;;26.30;54.10;97093.06;2084362;28;20945;-62
2023/09/14 11:32:57;;;;;;;6.50;2.85;;;;;;;26.18;54.12;97096.00;2083616;28;20230;-62
2023/09/14 11:34:05;;;;;;;5.45;2.90;;;;;;;26.72;53.46;97093.13;2083508;28;20201;-62
2023/09/14 11:35:09;;;;;;;4.13;2.78;;;;;;;27.25;51.94;97090.38;2082732;28;20231;-62
2023/09/14 11:36:17;;;;;;;6.80;2.83;;;;;;;26.40;54.03;97093.81;2083855;28;20611;-62
2023/09/14 11:37:24;;;;;;;5.95;2.50;;;;;;;26.72;53.88;97081.59;2084179;28;20246;-62
2023/09/14 11:38:30;;;;;;;7.18;3.03;;;;;;;26.96;52.78;97086.25;2084052;28;20201;-62
2023/09/14 11:39:34;;;;;;;5.85;2.72;;;;;;;27.72;51.53;97090.81;2083849;28;20219;-62
2023/09/14 11:40:38;;;;;;;5.63;3.25;;;;;;;27.46;52.25;97097.16;2083722;28;20221;-62
2023/09/14 11:41:47;;;;;;;14.93;3.20;;;;;;;28.15;50.87;97084.34;2083304;28;20231;-62
2023/09/14 11:43:21;;;;;;;4.60;2.45;;;;;;;29.74;47.37;97092.50;2069590;28;20205;-61
2023/09/14 11:44:49;;;;;;;8.82;5.45;;;;;;;30.12;46.32;97089.88;2079025;28;20208;-62
2023/09/14 11:45:58;;;;;;;53.03;38.17;;;;;;;30.87;45.70;97086.47;2082433;28;20188;-63
2023/09/14 11:47:04;;;;;;;7.30;4.00;;;;;;;29.23;47.14;97089.41;2082070;28;20437;-62
2023/09/14 11:48:14;;;;;;;21.17;10.60;;;;;;;30.01;46.88;97084.91;2082112;28;20458;-62
2023/09/14 11:49:20;;;;;;;7.50;3.57;;;;;;;30.29;46.31;97079.78;2083520;28;20528;-62
2023/09/14 11:50:27;;;;;;;8.70;2.43;;;;;;;30.35;46.32;97080.91;2082664;28;20442;-63
2023/09/14 11:51:29;;;;;;;5.20;2.23;;;;;;;28.98;48.25;97085.00;2082059;28;20500;-62
2023/09/14 11:52:32;;;;;;;6.37;2.90;;;;;;;28.83;48.06;97086.72;2080146;28;20914;-62
2023/09/14 11:53:37;;;;;;;4.80;2.90;;;;;;;28.23;48.98;97082.66;2080734;28;21093;-62
2023/09/14 11:54:45;;;;;;;7.03;3.50;;;;;;;27.74;50.08;97086.16;2081901;28;20497;-62
2023/09/14 11:55:50;;;;;;;5.93;3.10;;;;;;;26.99;50.73;97080.56;2082381;28;20427;-62
2023/09/14 11:56:58;;;;;;;4.70;2.80;;;;;;;25.60;53.17;97086.63;2082305;28;20433;-62
2023/09/14 11:57:59;;;;;;;6.28;3.17;;;;;;;24.92;55.39;97086.03;2082576;28;20913;-62
2023/09/14 11:59:02;;;;;;;8.40;2.85;;;;;;;24.99;54.30;97078.25;2083064;28;20652;-62
2023/09/14 12:00:05;;;;;;;8.00;3.58;;;;;;;24.84;54.98;97079.75;2081301;28;20232;-62
2023/09/14 12:01:08;;;;;;;11.43;3.35;;;;;;;26.75;51.57;97083.16;2083325;28;20291;-62
2023/09/14 12:02:11;;;;;;;6.88;2.75;;;;;;;28.23;49.00;97074.59;2083781;28;20196;-62
2023/09/14 12:03:12;;;;;;;6.03;2.70;;;;;;;28.52;48.77;97079.41;2083566;28;20204;-62
2023/09/14 12:04:14;;;;;;;5.13;2.80;;;;;;;29.02;48.89;97080.09;2082867;28;20201;-62
2023/09/14 12:05:16;;;;;;;5.00;2.50;;;;;;;30.00;46.49;97074.34;2082927;28;20221;-62
2023/09/14 12:06:18;;;;;;;6.63;3.15;;;;;;;28.77;47.56;97076.69;2085109;28;20678;-62
2023/09/14 12:07:23;;;;;;;3.25;2.22;;;;;;;29.65;47.00;97072.88;2085158;28;20337;-63
2023/09/14 12:08:24;;;;;;;5.20;3.25;;;;;;;28.08;48.19;97071.75;2084339;28;20200;-63
2023/09/14 12:09:33;;;;;;;9.68;3.72;;;;;;;26.20;51.88;97072.59;2083281;28;20301;-62
2023/09/14 12:10:42;;;;;;;5.68;2.22;;;;;;;26.14;52.32;97075.06;2083182;28;20216;-62
2023/09/14 12:11:45;;;;;;;6.80;2.20;;;;;;;26.55;53.13;97072.63;2083489;28;20231;-62
2023/09/14 12:12:47;;;;;;;3.30;2.38;;;;;;;27.52;51.83;97065.16;2083025;28;20291;-62
2023/09/14 12:13:53;;;;;;;5.00;2.30;;;;;;;27.55;50.99;97072.03;2083006;28;20291;-62
2023/09/14 12:14:57;;;;;;;7.35;2.58;;;;;;;28.71;49.05;97074.69;2082561;28;20699;-64
2023/09/14 12:16:01;;;;;;;39.38;26.08;;;;;;;29.01;47.21;97073.06;2082273;28;20200;-61
2023/09/14 12:17:17;;;;;;;53.95;41.78;;;;;;;29.39;46.62;97072.41;2081058;28;20205;-61
2023/09/14 12:18:19;;;;;;;22.98;13.43;;;;;;;29.53;46.61;97076.19;2082500;28;20242;-62
2023/09/14 12:19:20;;;;;;;9.55;7.32;;;;;;;29.86;45.74;97076.75;2083469;28;20206;-62
2023/09/14 12:20:22;;;;;;;7.00;1.90;;;;;;;30.55;44.66;97080.41;2079171;28;20224;-62
2023/09/14 12:21:25;;;;;;;3.80;2.10;;;;;;;31.10;43.63;97075.59;2085018;28;20533;-62
2023/09/14 12:22:29;;;;;;;7.07;2.10;;;;;;;31.18;43.35;97075.47;2082235;28;20422;-62
2023/09/14 12:23:32;;;;;;;2.70;1.80;;;;;;;31.22;42.87;97074.09;2083701;28;20434;-62
2023/09/14 12:24:34;;;;;;;9.90;3.17;;;;;;;31.27;42.90;97073.50;2083477;28;21001;-62
2023/09/14 12:25:38;;;;;;;3.90;2.20;;;;;;;31.37;43.33;97074.03;2084648;28;20470;-62
2023/09/14 12:26:40;;;;;;;4.80;2.23;;;;;;;30.15;43.81;97071.69;2081281;28;20517;-62
2023/09/14 12:27:42;;;;;;;4.37;2.13;;;;;;;30.01;44.40;97071.47;2081723;28;20437;-62
2023/09/14 12:28:46;;;;;;;5.10;1.73;;;;;;;29.80;43.96;97067.56;2081099;28;20472;-62
2023/09/14 12:29:49;;;;;;;2.40;1.70;;;;;;;29.47;45.31;97070.50;2083776;28;20521;-62
2023/09/14 12:30:51;;;;;;;7.23;2.23;;;;;;;29.26;45.96;97065.69;2084821;28;20939;-62
2023/09/14 12:31:52;;;;;;;5.27;1.97;;;;;;;29.24;46.35;97058.81;2086617;28;20430;-63
2023/09/14 12:32:54;;;;;;;4.83;2.00;;;;;;;28.93;46.17;97057.81;2085723;28;20430;-62
2023/09/14 12:33:56;;;;;;;10.23;1.80;;;;;;;29.10;46.81;97066.66;2084925;28;20453;-62
2023/09/14 12:34:59;;;;;;;4.43;1.90;;;;;;;29.95;44.57;97064.09;2085340;28;20525;-62
2023/09/14 12:36:00;;;;;;;3.93;1.80;;;;;;;29.59;45.45;97064.69;2081111;28;20889;-62
2023/09/14 12:37:03;;;;;;;7.40;2.00;;;;;;;29.32;45.21;97053.44;2082080;28;20517;-62
2023/09/14 12:38:04;;;;;;;6.97;2.17;;;;;;;29.28;45.47;97061.03;2084073;28;20473;-62
2023/09/14 12:39:12;;;;;;;5.70;2.00;;;;;;;29.33;45.05;97057.78;2083003;28;20426;-62